My Meet Scores
Scarlett Pytlak, Legacy Elite Gymnastics LLC - MyMeetScores.com
Top100 | Top Teams | Upcoming Meets | Completed Meets | Latest | Add Scores | Help| Support | Bookmark and Share

Scarlett Pytlak, Legacy Elite Gymnastics LLC
Personal Bests
LevelVault BarsBeamFloorAA
39.4509.125 9.0009.07536.450
48.7509.125 8.9508.92535.375
58.6506.350 8.2008.60030.200
6 0.000
XB9.2509.650 8.6009.25036.700
Meet Scores
Date Meet Team Session Level Division Vault Bars Beam Floor AA
2021-03-12 LUCKY INVITATIONAL Legacy Elite Gymnastics LLC A02 6 Jr A 0.000 22
2021-02-19 BIG Classic 2021 Legacy Elite Gymnastics LLC 3B 5 Child B 8.350 14 6.350 16 8.125 11 7.375 16 30.200 16
2021-02-12 Legacy Elite Classic Legacy Elite Gymnastics LLC 4 5 Junior 8.650 5 0.000 5 8.200 5 8.125 5 24.975 5
2021-01-23 2021 UGA Invitational Legacy Elite Gymnastics LLC 3A 5 JrA 8.450 9T 0.000 13 7.600 11 8.600 6T 24.650 12
2020-12-17 St Nick II Optional Legacy Elite Gymnastics LLC 4 5 JrA 7.775 14 0.000 14 7.300 14 8.100 14 23.175 14
2020-03-06 Illinois Level 4 State Championships Legacy Elite Gymnastics LLC 3 4 Youth C 8.650 20T 9.125 10 8.775 22 8.300 27 34.850 22
2020-02-29 Yurchenko Invitational Legacy Elite - Aurora 3 4 Level 4 Junior B 7.800 10 9.025 6 8.725 8 8.550 11 34.100 11
2020-02-14 Big Classic Legacy Elite Gymnastics LLC 3B 4 Child C 7.900 26T 8.700 23T 8.900 43T 8.500 42 34.000 32
2020-01-31 LEgacy Elite Classic Legacy Elite Gymnastics LLC 6 4 Ch B 8.750 5 8.275 5 8.050 11 8.450 11 33.525 10
2020-01-24 King Arthur Invitational Legacy Elite Gymnastics LLC 6 4 JR B 8.500 5 8.250 13T 8.900 12 8.650 12 34.300 11
2020-01-10 Leenda's Island Adventure Legacy Elite Gymnastics LLC PG6 4 9 Year Old 8.550 9 9.050 5 8.850 7 8.925 5 35.375 6
2019-03-01 2019 MEGA Spring Invite Legacy Elite Gymnastics LLC All 4 All Ages 8.000 118T 8.100 104T 8.550 90T 8.525 105T 33.175 110
2019-02-15 Big ClassicBIG CLASSIC Legacy Elite Gymnastics LLC 2A 4 Child A 7.725 14 8.375 11T 8.200 14T 7.900 13 32.200 14
2019-01-25 King Arthur Invitational Legacy Elite Gymnastics LLC 1 4 Jr A 7.475 12 7.350 13 8.000 12 7.475 13 30.300 13
2019-01-11 Legacy Elite Classic Legacy Elite Gymnastics LLC 5B 4 JrA 7.550 13 7.875 13 7.850 14 7.575 14 30.850 14
2019-01-04 Leenda's Island Adventure Legacy Elite Gymnastics LLC G03 4 8 and Unde 7.900 18T 7.400 16 8.150 19 7.900 20 31.350 17
2018-12-14 Hawaiian Pineapple Classic Legacy Elite Gymnastics LLC 6A 4 Ages8U 7.500 9T 7.750 13 8.950 9 8.675 11 32.875 12
2018-03-09 Lucky Invitational Naperville Gymnastics Club B02 3 Jr A 9.425 3 9.100 7T 8.925 9 8.700 10T 36.150 8
2018-03-02 2018 Flip'r Invitational Naperville Gymnastics Club 7 3 Child Age 7 9.450 2 8.925 6 9.000 3 9.075 4 36.450 2
2018-02-16 Big Classic Naperville Gymnastics Club 4B 3 Child A 8.850 8 9.125 4 8.850 3 9.025 5 35.850 5
2018-01-19 2018 Bravo Classic Naperville Gymnastics Club 8B 3 Child 9.150 17 8.700 16 7.900 19 8.850 17T 34.600 19
2017-12-15 2017 Aspire Classic Naperville Gymnastics Club 9B 3 Younger 9.125 10T 8.950 8 8.850 6 8.750 7 35.675 7
2017-11-17 SCGA Classic Naperville Gymnastics Club 1 3 Child 8.600 12 8.350 10 7.700 14 8.000 13 32.650 12
2017-03-10 Lucky Invitational Naperville Gymnastics Club B04 XB Jr A 9.250 3T 9.650 3 8.550 18 9.250 3T 36.700 6
2017-02-24 Kinetic Classic Naperville Gymnastics Club 7 XB All 8.800 4 9.350 3 8.600 8 8.900 4T 35.650 4
2017-02-03 2017 Gateway Challenge Naperville Gymnastics Club 5B 3 6 & under 8.700 5 8.075 5 7.550 5 7.600 5 31.925 5
2017-01-20 2017 Bravo Classic Naperville Gymnastics Club 10B 3 6-7yrs 8.100 28 8.300 27 7.550 30 7.325 29 31.275 30
2017-01-07 2017 Flip'r Invitational Naperville Gymnastics Club 3 Lvl 3: Child 8.650 13 8.925 8 7.700 13 8.625 10 33.900 12
Get your scores on
a t-shirt, pin, or hoodie